sensor_id;sensor_type;location;lat;lon;timestamp;P1;durP1;ratioP1;P2;durP2;ratioP2
15831;SDS011;8016;49.928;9.372;2022-09-09T00:04:12;4.03;;;1.67;;
15831;SDS011;8016;49.928;9.372;2022-09-09T00:06:50;2.30;;;1.50;;
15831;SDS011;8016;49.928;9.372;2022-09-09T00:09:21;3.60;;;1.60;;
15831;SDS011;8016;49.928;9.372;2022-09-09T00:14:55;6.47;;;1.70;;
15831;SDS011;8016;49.928;9.372;2022-09-09T00:20:00;2.23;;;1.53;;
15831;SDS011;8016;49.928;9.372;2022-09-09T00:22:28;1.73;;;1.40;;
15831;SDS011;8016;49.928;9.372;2022-09-09T00:30:18;3.10;;;1.53;;
15831;SDS011;8016;49.928;9.372;2022-09-09T00:32:47;1.80;;;1.70;;
15831;SDS011;8016;49.928;9.372;2022-09-09T00:35:16;2.27;;;1.53;;
15831;SDS011;8016;49.928;9.372;2022-09-09T00:37:43;3.63;;;1.73;;
15831;SDS011;8016;49.928;9.372;2022-09-09T00:40:45;2.40;;;1.83;;
15831;SDS011;8016;49.928;9.372;2022-09-09T00:48:22;2.60;;;1.47;;
15831;SDS011;8016;49.928;9.372;2022-09-09T00:50:57;1.70;;;1.60;;
15831;SDS011;8016;49.928;9.372;2022-09-09T00:56:16;3.37;;;1.80;;
15831;SDS011;8016;49.928;9.372;2022-09-09T01:01:25;3.10;;;1.70;;
15831;SDS011;8016;49.928;9.372;2022-09-09T01:06:22;3.30;;;1.63;;
15831;SDS011;8016;49.928;9.372;2022-09-09T01:11:26;1.63;;;1.30;;
15831;SDS011;8016;49.928;9.372;2022-09-09T01:16:46;5.93;;;1.70;;
15831;SDS011;8016;49.928;9.372;2022-09-09T01:19:15;1.73;;;1.20;;
15831;SDS011;8016;49.928;9.372;2022-09-09T01:21:48;2.10;;;1.37;;
15831;SDS011;8016;49.928;9.372;2022-09-09T01:26:45;2.77;;;1.33;;
15831;SDS011;8016;49.928;9.372;2022-09-09T01:29:12;1.73;;;1.30;;
15831;SDS011;8016;49.928;9.372;2022-09-09T01:31:40;3.00;;;1.40;;
15831;SDS011;8016;49.928;9.372;2022-09-09T01:34:16;1.90;;;1.37;;
15831;SDS011;8016;49.928;9.372;2022-09-09T01:36:43;2.67;;;1.50;;
15831;SDS011;8016;49.928;9.372;2022-09-09T01:39:10;1.40;;;1.30;;
15831;SDS011;8016;49.928;9.372;2022-09-09T01:41:37;6.50;;;1.97;;
15831;SDS011;8016;49.928;9.372;2022-09-09T01:44:03;3.03;;;1.50;;
15831;SDS011;8016;49.928;9.372;2022-09-09T01:46:30;4.00;;;1.30;;
15831;SDS011;8016;49.928;9.372;2022-09-09T01:48:56;1.10;;;1.00;;
15831;SDS011;8016;49.928;9.372;2022-09-09T01:51:22;2.30;;;1.20;;
15831;SDS011;8016;49.928;9.372;2022-09-09T01:53:49;3.07;;;1.17;;
15831;SDS011;8016;49.928;9.372;2022-09-09T01:56:25;3.07;;;1.10;;
15831;SDS011;8016;49.928;9.372;2022-09-09T01:58:57;2.07;;;1.00;;
15831;SDS011;8016;49.928;9.372;2022-09-09T02:04:12;1.33;;;0.97;;
15831;SDS011;8016;49.928;9.372;2022-09-09T02:06:43;8.07;;;1.53;;
15831;SDS011;8016;49.928;9.372;2022-09-09T02:09:11;1.40;;;1.20;;
15831;SDS011;8016;49.928;9.372;2022-09-09T02:11:38;3.13;;;1.40;;
15831;SDS011;8016;49.928;9.372;2022-09-09T02:14:08;3.90;;;1.10;;
15831;SDS011;8016;49.928;9.372;2022-09-09T02:16:40;3.70;;;1.57;;
15831;SDS011;8016;49.928;9.372;2022-09-09T02:19:10;4.00;;;1.00;;
15831;SDS011;8016;49.928;9.372;2022-09-09T02:21:37;11.00;;;1.27;;
15831;SDS011;8016;49.928;9.372;2022-09-09T02:24:05;1.93;;;1.03;;
15831;SDS011;8016;49.928;9.372;2022-09-09T02:26:37;3.30;;;1.10;;
15831;SDS011;8016;49.928;9.372;2022-09-09T02:29:06;2.10;;;1.17;;
15831;SDS011;8016;49.928;9.372;2022-09-09T02:31:33;1.90;;;1.30;;
15831;SDS011;8016;49.928;9.372;2022-09-09T02:34:00;2.90;;;0.90;;
15831;SDS011;8016;49.928;9.372;2022-09-09T02:36:29;1.40;;;1.30;;
15831;SDS011;8016;49.928;9.372;2022-09-09T02:38:58;6.20;;;2.20;;
15831;SDS011;8016;49.928;9.372;2022-09-09T02:41:30;4.03;;;2.00;;
15831;SDS011;8016;49.928;9.372;2022-09-09T02:43:57;2.50;;;1.10;;
15831;SDS011;8016;49.928;9.372;2022-09-09T02:46:36;1.37;;;1.27;;
15831;SDS011;8016;49.928;9.372;2022-09-09T02:51:35;5.43;;;1.67;;
15831;SDS011;8016;49.928;9.372;2022-09-09T02:56:43;1.83;;;1.00;;
15831;SDS011;8016;49.928;9.372;2022-09-09T02:59:11;4.90;;;1.17;;
15831;SDS011;8016;49.928;9.372;2022-09-09T03:01:37;3.23;;;1.17;;
15831;SDS011;8016;49.928;9.372;2022-09-09T03:04:05;1.30;;;1.00;;
15831;SDS011;8016;49.928;9.372;2022-09-09T03:06:31;3.20;;;1.30;;
15831;SDS011;8016;49.928;9.372;2022-09-09T03:08:57;1.27;;;1.00;;
15831;SDS011;8016;49.928;9.372;2022-09-09T03:11:25;5.03;;;1.57;;
15831;SDS011;8016;49.928;9.372;2022-09-09T03:13:51;1.83;;;1.10;;
15831;SDS011;8016;49.928;9.372;2022-09-09T03:16:18;3.30;;;1.20;;
15831;SDS011;8016;49.928;9.372;2022-09-09T03:18:44;4.30;;;1.07;;
15831;SDS011;8016;49.928;9.372;2022-09-09T03:21:10;1.63;;;1.13;;
15831;SDS011;8016;49.928;9.372;2022-09-09T03:23:36;4.03;;;1.10;;
15831;SDS011;8016;49.928;9.372;2022-09-09T03:26:02;2.37;;;1.20;;
15831;SDS011;8016;49.928;9.372;2022-09-09T03:28:28;1.50;;;1.10;;
15831;SDS011;8016;49.928;9.372;2022-09-09T03:30:59;2.10;;;1.87;;
15831;SDS011;8016;49.928;9.372;2022-09-09T03:33:25;2.47;;;1.20;;
15831;SDS011;8016;49.928;9.372;2022-09-09T03:35:51;2.53;;;1.20;;
15831;SDS011;8016;49.928;9.372;2022-09-09T03:38:17;4.30;;;1.80;;
15831;SDS011;8016;49.928;9.372;2022-09-09T03:40:53;2.60;;;1.00;;
15831;SDS011;8016;49.928;9.372;2022-09-09T03:43:25;4.27;;;1.10;;
15831;SDS011;8016;49.928;9.372;2022-09-09T03:45:51;1.93;;;1.40;;
15831;SDS011;8016;49.928;9.372;2022-09-09T03:48:17;1.60;;;1.27;;
15831;SDS011;8016;49.928;9.372;2022-09-09T03:50:44;2.90;;;1.20;;
15831;SDS011;8016;49.928;9.372;2022-09-09T03:53:10;4.30;;;1.30;;
15831;SDS011;8016;49.928;9.372;2022-09-09T03:55:36;4.83;;;1.27;;
15831;SDS011;8016;49.928;9.372;2022-09-09T03:58:02;4.37;;;1.10;;
15831;SDS011;8016;49.928;9.372;2022-09-09T04:00:28;2.43;;;1.20;;
15831;SDS011;8016;49.928;9.372;2022-09-09T04:02:57;1.43;;;1.00;;
15831;SDS011;8016;49.928;9.372;2022-09-09T04:05:23;4.83;;;1.30;;
15831;SDS011;8016;49.928;9.372;2022-09-09T04:07:49;3.50;;;1.17;;
15831;SDS011;8016;49.928;9.372;2022-09-09T04:10:16;2.43;;;1.27;;
15831;SDS011;8016;49.928;9.372;2022-09-09T04:12:42;1.40;;;1.10;;
15831;SDS011;8016;49.928;9.372;2022-09-09T04:15:09;3.93;;;1.47;;
15831;SDS011;8016;49.928;9.372;2022-09-09T04:17:35;2.37;;;1.20;;
15831;SDS011;8016;49.928;9.372;2022-09-09T04:20:01;5.43;;;1.77;;
15831;SDS011;8016;49.928;9.372;2022-09-09T04:22:27;4.80;;;1.70;;
15831;SDS011;8016;49.928;9.372;2022-09-09T04:24:53;5.73;;;1.17;;
15831;SDS011;8016;49.928;9.372;2022-09-09T04:27:20;2.57;;;1.00;;
15831;SDS011;8016;49.928;9.372;2022-09-09T04:29:46;2.10;;;1.33;;
15831;SDS011;8016;49.928;9.372;2022-09-09T04:32:11;3.43;;;1.10;;
15831;SDS011;8016;49.928;9.372;2022-09-09T04:34:41;3.73;;;1.43;;
15831;SDS011;8016;49.928;9.372;2022-09-09T04:37:07;0.93;;;0.90;;
15831;SDS011;8016;49.928;9.372;2022-09-09T04:39:33;2.70;;;1.70;;
15831;SDS011;8016;49.928;9.372;2022-09-09T04:41:59;3.43;;;1.07;;
15831;SDS011;8016;49.928;9.372;2022-09-09T04:44:25;2.27;;;1.17;;
15831;SDS011;8016;49.928;9.372;2022-09-09T04:46:51;0.87;;;0.87;;
15831;SDS011;8016;49.928;9.372;2022-09-09T04:49:17;1.90;;;0.90;;
15831;SDS011;8016;49.928;9.372;2022-09-09T04:51:43;4.80;;;1.77;;
15831;SDS011;8016;49.928;9.372;2022-09-09T04:54:09;3.20;;;1.53;;
15831;SDS011;8016;49.928;9.372;2022-09-09T04:56:36;2.17;;;1.60;;
15831;SDS011;8016;49.928;9.372;2022-09-09T04:59:02;3.93;;;1.60;;
15831;SDS011;8016;49.928;9.372;2022-09-09T05:01:28;3.80;;;1.60;;
15831;SDS011;8016;49.928;9.372;2022-09-09T05:03:54;5.93;;;4.77;;
15831;SDS011;8016;49.928;9.372;2022-09-09T05:06:20;2.50;;;2.30;;
15831;SDS011;8016;49.928;9.372;2022-09-09T05:08:47;3.90;;;1.97;;
15831;SDS011;8016;49.928;9.372;2022-09-09T05:13:47;11.87;;;6.90;;
15831;SDS011;8016;49.928;9.372;2022-09-09T05:16:15;5.13;;;4.50;;
15831;SDS011;8016;49.928;9.372;2022-09-09T05:18:41;7.80;;;7.00;;
15831;SDS011;8016;49.928;9.372;2022-09-09T05:21:11;6.83;;;5.60;;
15831;SDS011;8016;49.928;9.372;2022-09-09T05:23:37;9.07;;;5.87;;
15831;SDS011;8016;49.928;9.372;2022-09-09T05:26:04;8.60;;;7.37;;
15831;SDS011;8016;49.928;9.372;2022-09-09T05:28:30;6.33;;;4.30;;
15831;SDS011;8016;49.928;9.372;2022-09-09T05:31:00;9.00;;;5.97;;
15831;SDS011;8016;49.928;9.372;2022-09-09T05:33:28;5.17;;;4.37;;
15831;SDS011;8016;49.928;9.372;2022-09-09T05:35:56;4.83;;;3.80;;
15831;SDS011;8016;49.928;9.372;2022-09-09T05:38:22;4.30;;;3.33;;
15831;SDS011;8016;49.928;9.372;2022-09-09T05:40:50;2.40;;;2.03;;
15831;SDS011;8016;49.928;9.372;2022-09-09T05:43:17;8.20;;;2.30;;
15831;SDS011;8016;49.928;9.372;2022-09-09T05:45:44;2.90;;;1.33;;
15831;SDS011;8016;49.928;9.372;2022-09-09T05:48:12;2.60;;;1.57;;
15831;SDS011;8016;49.928;9.372;2022-09-09T05:50:38;4.33;;;1.57;;
15831;SDS011;8016;49.928;9.372;2022-09-09T05:53:04;1.40;;;1.30;;
15831;SDS011;8016;49.928;9.372;2022-09-09T05:55:30;3.40;;;1.37;;
15831;SDS011;8016;49.928;9.372;2022-09-09T05:57:56;2.20;;;1.03;;
15831;SDS011;8016;49.928;9.372;2022-09-09T06:00:22;4.53;;;1.30;;
15831;SDS011;8016;49.928;9.372;2022-09-09T06:02:51;4.87;;;1.60;;
15831;SDS011;8016;49.928;9.372;2022-09-09T06:05:17;3.53;;;1.20;;
15831;SDS011;8016;49.928;9.372;2022-09-09T06:07:43;2.23;;;1.90;;
15831;SDS011;8016;49.928;9.372;2022-09-09T06:10:10;1.53;;;1.30;;
15831;SDS011;8016;49.928;9.372;2022-09-09T06:12:38;1.97;;;1.30;;
15831;SDS011;8016;49.928;9.372;2022-09-09T06:15:04;1.40;;;1.20;;
15831;SDS011;8016;49.928;9.372;2022-09-09T06:17:30;5.00;;;1.63;;
15831;SDS011;8016;49.928;9.372;2022-09-09T06:19:56;4.20;;;1.40;;
15831;SDS011;8016;49.928;9.372;2022-09-09T06:22:23;2.37;;;1.43;;
15831;SDS011;8016;49.928;9.372;2022-09-09T06:24:49;1.57;;;1.27;;
15831;SDS011;8016;49.928;9.372;2022-09-09T06:27:16;2.60;;;1.20;;
15831;SDS011;8016;49.928;9.372;2022-09-09T06:29:45;5.10;;;1.10;;
15831;SDS011;8016;49.928;9.372;2022-09-09T06:32:10;4.50;;;1.37;;
15831;SDS011;8016;49.928;9.372;2022-09-09T06:34:36;2.27;;;0.87;;
15831;SDS011;8016;49.928;9.372;2022-09-09T06:37:02;5.03;;;1.07;;
15831;SDS011;8016;49.928;9.372;2022-09-09T06:39:29;5.37;;;1.20;;
15831;SDS011;8016;49.928;9.372;2022-09-09T06:41:55;2.10;;;0.80;;
15831;SDS011;8016;49.928;9.372;2022-09-09T06:44:24;3.53;;;1.33;;
15831;SDS011;8016;49.928;9.372;2022-09-09T06:46:51;4.10;;;1.40;;
15831;SDS011;8016;49.928;9.372;2022-09-09T06:49:17;3.67;;;1.30;;
15831;SDS011;8016;49.928;9.372;2022-09-09T06:51:44;3.27;;;1.60;;
15831;SDS011;8016;49.928;9.372;2022-09-09T06:54:11;7.90;;;3.10;;
15831;SDS011;8016;49.928;9.372;2022-09-09T06:56:38;4.33;;;1.50;;
15831;SDS011;8016;49.928;9.372;2022-09-09T06:59:08;4.03;;;1.73;;
15831;SDS011;8016;49.928;9.372;2022-09-09T07:01:38;3.73;;;1.33;;
15831;SDS011;8016;49.928;9.372;2022-09-09T07:04:16;4.60;;;1.10;;
15831;SDS011;8016;49.928;9.372;2022-09-09T07:06:43;2.77;;;1.17;;
15831;SDS011;8016;49.928;9.372;2022-09-09T07:09:10;3.80;;;1.00;;
15831;SDS011;8016;49.928;9.372;2022-09-09T07:11:37;2.10;;;0.70;;
15831;SDS011;8016;49.928;9.372;2022-09-09T07:14:03;3.53;;;1.00;;
15831;SDS011;8016;49.928;9.372;2022-09-09T07:16:29;4.13;;;0.90;;
15831;SDS011;8016;49.928;9.372;2022-09-09T07:19:01;2.63;;;0.90;;
15831;SDS011;8016;49.928;9.372;2022-09-09T07:21:28;2.17;;;0.90;;
15831;SDS011;8016;49.928;9.372;2022-09-09T07:23:54;3.70;;;1.73;;
15831;SDS011;8016;49.928;9.372;2022-09-09T07:26:22;2.20;;;0.83;;
15831;SDS011;8016;49.928;9.372;2022-09-09T07:28:49;3.87;;;1.10;;
15831;SDS011;8016;49.928;9.372;2022-09-09T07:31:19;1.93;;;1.07;;
15831;SDS011;8016;49.928;9.372;2022-09-09T07:33:45;2.37;;;1.07;;
15831;SDS011;8016;49.928;9.372;2022-09-09T07:38:48;3.83;;;1.00;;
15831;SDS011;8016;49.928;9.372;2022-09-09T07:41:18;3.17;;;0.90;;
15831;SDS011;8016;49.928;9.372;2022-09-09T07:43:45;2.27;;;0.90;;
15831;SDS011;8016;49.928;9.372;2022-09-09T07:46:13;3.00;;;0.87;;
15831;SDS011;8016;49.928;9.372;2022-09-09T07:48:43;2.57;;;0.80;;
15831;SDS011;8016;49.928;9.372;2022-09-09T07:51:11;2.80;;;0.80;;
15831;SDS011;8016;49.928;9.372;2022-09-09T07:53:40;3.97;;;0.97;;
15831;SDS011;8016;49.928;9.372;2022-09-09T07:56:11;4.60;;;1.10;;
15831;SDS011;8016;49.928;9.372;2022-09-09T07:58:37;2.90;;;1.00;;
15831;SDS011;8016;49.928;9.372;2022-09-09T08:01:08;3.40;;;1.20;;
15831;SDS011;8016;49.928;9.372;2022-09-09T08:03:34;6.63;;;1.40;;
15831;SDS011;8016;49.928;9.372;2022-09-09T08:06:01;5.33;;;1.20;;
15831;SDS011;8016;49.928;9.372;2022-09-09T08:08:27;1.87;;;0.80;;
15831;SDS011;8016;49.928;9.372;2022-09-09T08:10:53;3.77;;;1.20;;
15831;SDS011;8016;49.928;9.372;2022-09-09T08:13:19;3.20;;;1.10;;
15831;SDS011;8016;49.928;9.372;2022-09-09T08:15:45;5.07;;;1.90;;
15831;SDS011;8016;49.928;9.372;2022-09-09T08:18:11;5.27;;;1.83;;
15831;SDS011;8016;49.928;9.372;2022-09-09T08:20:37;4.20;;;1.33;;
15831;SDS011;8016;49.928;9.372;2022-09-09T08:23:03;5.77;;;1.63;;
15831;SDS011;8016;49.928;9.372;2022-09-09T08:25:29;2.63;;;1.33;;
15831;SDS011;8016;49.928;9.372;2022-09-09T08:27:55;2.80;;;1.20;;
15831;SDS011;8016;49.928;9.372;2022-09-09T08:30:21;2.93;;;1.20;;
15831;SDS011;8016;49.928;9.372;2022-09-09T08:32:48;3.60;;;1.00;;
15831;SDS011;8016;49.928;9.372;2022-09-09T08:35:16;4.10;;;1.50;;
15831;SDS011;8016;49.928;9.372;2022-09-09T08:37:42;4.27;;;1.07;;
15831;SDS011;8016;49.928;9.372;2022-09-09T08:40:09;4.70;;;1.30;;
15831;SDS011;8016;49.928;9.372;2022-09-09T08:42:43;4.30;;;1.40;;
15831;SDS011;8016;49.928;9.372;2022-09-09T08:47:50;4.20;;;1.13;;
15831;SDS011;8016;49.928;9.372;2022-09-09T08:50:22;4.60;;;1.20;;
15831;SDS011;8016;49.928;9.372;2022-09-09T08:55:27;3.73;;;1.40;;
15831;SDS011;8016;49.928;9.372;2022-09-09T08:57:56;3.17;;;1.20;;
15831;SDS011;8016;49.928;9.372;2022-09-09T09:00:22;2.43;;;1.10;;
15831;SDS011;8016;49.928;9.372;2022-09-09T09:03:04;7.13;;;1.40;;
15831;SDS011;8016;49.928;9.372;2022-09-09T09:08:26;3.10;;;1.17;;
15831;SDS011;8016;49.928;9.372;2022-09-09T09:10:56;7.37;;;1.40;;
15831;SDS011;8016;49.928;9.372;2022-09-09T09:13:44;5.60;;;1.60;;
15831;SDS011;8016;49.928;9.372;2022-09-09T09:16:17;4.37;;;1.23;;
15831;SDS011;8016;49.928;9.372;2022-09-09T09:18:45;3.70;;;1.17;;
15831;SDS011;8016;49.928;9.372;2022-09-09T09:21:12;3.13;;;1.17;;
15831;SDS011;8016;49.928;9.372;2022-09-09T09:23:45;4.33;;;1.10;;
15831;SDS011;8016;49.928;9.372;2022-09-09T09:26:14;5.13;;;1.37;;
15831;SDS011;8016;49.928;9.372;2022-09-09T09:28:40;4.83;;;1.57;;
15831;SDS011;8016;49.928;9.372;2022-09-09T09:31:08;4.93;;;1.60;;
15831;SDS011;8016;49.928;9.372;2022-09-09T09:36:00;4.53;;;1.13;;
15831;SDS011;8016;49.928;9.372;2022-09-09T09:38:28;3.23;;;1.20;;
15831;SDS011;8016;49.928;9.372;2022-09-09T09:40:55;5.23;;;1.50;;
15831;SDS011;8016;49.928;9.372;2022-09-09T09:43:29;3.50;;;1.30;;
15831;SDS011;8016;49.928;9.372;2022-09-09T09:45:56;9.03;;;1.53;;
15831;SDS011;8016;49.928;9.372;2022-09-09T09:48:26;6.63;;;2.67;;
15831;SDS011;8016;49.928;9.372;2022-09-09T09:50:53;3.20;;;1.00;;
15831;SDS011;8016;49.928;9.372;2022-09-09T09:53:20;5.90;;;1.37;;
15831;SDS011;8016;49.928;9.372;2022-09-09T09:55:59;4.30;;;1.40;;
15831;SDS011;8016;49.928;9.372;2022-09-09T09:58:27;2.63;;;1.00;;
15831;SDS011;8016;49.928;9.372;2022-09-09T10:00:54;3.50;;;1.47;;
15831;SDS011;8016;49.928;9.372;2022-09-09T10:05:49;4.13;;;1.40;;
15831;SDS011;8016;49.928;9.372;2022-09-09T10:08:16;3.13;;;0.77;;
15831;SDS011;8016;49.928;9.372;2022-09-09T10:21:44;2.17;;;0.80;;
15831;SDS011;8016;49.928;9.372;2022-09-09T10:27:03;3.57;;;0.90;;
15831;SDS011;8016;49.928;9.372;2022-09-09T10:32:33;3.10;;;0.97;;
15831;SDS011;8016;49.928;9.372;2022-09-09T10:35:18;4.53;;;0.90;;
15831;SDS011;8016;49.928;9.372;2022-09-09T10:40:18;2.40;;;1.00;;
15831;SDS011;8016;49.928;9.372;2022-09-09T10:42:45;5.50;;;1.00;;
15831;SDS011;8016;49.928;9.372;2022-09-09T10:47:57;3.33;;;0.73;;
15831;SDS011;8016;49.928;9.372;2022-09-09T10:53:18;1.87;;;1.00;;
15831;SDS011;8016;49.928;9.372;2022-09-09T10:55:51;3.60;;;1.10;;
15831;SDS011;8016;49.928;9.372;2022-09-09T10:58:20;4.50;;;1.00;;
15831;SDS011;8016;49.928;9.372;2022-09-09T11:00:49;3.43;;;1.10;;
15831;SDS011;8016;49.928;9.372;2022-09-09T11:03:19;6.13;;;1.37;;
15831;SDS011;8016;49.928;9.372;2022-09-09T11:05:46;4.77;;;1.57;;
15831;SDS011;8016;49.928;9.372;2022-09-09T11:13:20;5.77;;;1.23;;
15831;SDS011;8016;49.928;9.372;2022-09-09T11:15:52;3.17;;;1.03;;
15831;SDS011;8016;49.928;9.372;2022-09-09T11:18:21;3.47;;;1.17;;
15831;SDS011;8016;49.928;9.372;2022-09-09T11:20:49;3.83;;;1.47;;
15831;SDS011;8016;49.928;9.372;2022-09-09T11:23:24;3.53;;;1.17;;
15831;SDS011;8016;49.928;9.372;2022-09-09T11:25:54;6.67;;;1.73;;
15831;SDS011;8016;49.928;9.372;2022-09-09T11:38:46;2.90;;;1.00;;
15831;SDS011;8016;49.928;9.372;2022-09-09T11:41:13;3.63;;;0.97;;
15831;SDS011;8016;49.928;9.372;2022-09-09T11:46:06;4.30;;;1.33;;
15831;SDS011;8016;49.928;9.372;2022-09-09T11:48:34;1.87;;;0.80;;
15831;SDS011;8016;49.928;9.372;2022-09-09T11:51:08;4.33;;;0.90;;
15831;SDS011;8016;49.928;9.372;2022-09-09T11:53:35;1.70;;;1.00;;
15831;SDS011;8016;49.928;9.372;2022-09-09T11:56:02;2.90;;;0.90;;
15831;SDS011;8016;49.928;9.372;2022-09-09T11:58:29;2.43;;;0.90;;
15831;SDS011;8016;49.928;9.372;2022-09-09T12:00:58;2.07;;;0.60;;
15831;SDS011;8016;49.928;9.372;2022-09-09T12:06:19;4.17;;;1.27;;
15831;SDS011;8016;49.928;9.372;2022-09-09T12:08:47;3.10;;;0.90;;
15831;SDS011;8016;49.928;9.372;2022-09-09T12:11:28;1.97;;;0.63;;
15831;SDS011;8016;49.928;9.372;2022-09-09T12:13:56;2.50;;;0.70;;
15831;SDS011;8016;49.928;9.372;2022-09-09T12:16:35;4.57;;;1.03;;
15831;SDS011;8016;49.928;9.372;2022-09-09T12:19:04;2.40;;;0.80;;
15831;SDS011;8016;49.928;9.372;2022-09-09T12:21:51;2.03;;;0.80;;
15831;SDS011;8016;49.928;9.372;2022-09-09T12:24:25;2.97;;;1.00;;
15831;SDS011;8016;49.928;9.372;2022-09-09T12:27:01;3.33;;;0.90;;
15831;SDS011;8016;49.928;9.372;2022-09-09T12:29:43;2.40;;;0.70;;
15831;SDS011;8016;49.928;9.372;2022-09-09T12:32:11;2.90;;;0.90;;
15831;SDS011;8016;49.928;9.372;2022-09-09T12:34:39;3.10;;;0.97;;
15831;SDS011;8016;49.928;9.372;2022-09-09T12:37:40;1.80;;;0.73;;
15831;SDS011;8016;49.928;9.372;2022-09-09T12:40:06;5.80;;;1.10;;
15831;SDS011;8016;49.928;9.372;2022-09-09T12:42:32;4.10;;;1.20;;
15831;SDS011;8016;49.928;9.372;2022-09-09T12:44:59;3.33;;;0.97;;
15831;SDS011;8016;49.928;9.372;2022-09-09T12:50:00;2.93;;;0.93;;
15831;SDS011;8016;49.928;9.372;2022-09-09T12:52:35;2.47;;;0.90;;
15831;SDS011;8016;49.928;9.372;2022-09-09T12:55:04;3.70;;;1.70;;
15831;SDS011;8016;49.928;9.372;2022-09-09T12:57:37;5.43;;;1.23;;
15831;SDS011;8016;49.928;9.372;2022-09-09T13:00:06;2.30;;;0.90;;
15831;SDS011;8016;49.928;9.372;2022-09-09T13:02:34;2.50;;;0.80;;
15831;SDS011;8016;49.928;9.372;2022-09-09T13:05:13;2.90;;;1.07;;
15831;SDS011;8016;49.928;9.372;2022-09-09T13:07:41;2.80;;;0.83;;
15831;SDS011;8016;49.928;9.372;2022-09-09T13:10:10;3.80;;;0.87;;
15831;SDS011;8016;49.928;9.372;2022-09-09T13:12:36;2.20;;;1.30;;
15831;SDS011;8016;49.928;9.372;2022-09-09T13:15:02;1.80;;;0.87;;
15831;SDS011;8016;49.928;9.372;2022-09-09T13:17:28;1.73;;;0.97;;
15831;SDS011;8016;49.928;9.372;2022-09-09T13:19:54;3.37;;;0.90;;
15831;SDS011;8016;49.928;9.372;2022-09-09T13:24:47;2.00;;;0.77;;
15831;SDS011;8016;49.928;9.372;2022-09-09T13:29:51;3.13;;;1.10;;
15831;SDS011;8016;49.928;9.372;2022-09-09T13:32:21;5.00;;;0.93;;
15831;SDS011;8016;49.928;9.372;2022-09-09T13:34:57;2.97;;;0.93;;
15831;SDS011;8016;49.928;9.372;2022-09-09T13:37:44;2.43;;;0.90;;
15831;SDS011;8016;49.928;9.372;2022-09-09T13:40:17;1.77;;;0.67;;
15831;SDS011;8016;49.928;9.372;2022-09-09T13:42:43;4.03;;;1.10;;
15831;SDS011;8016;49.928;9.372;2022-09-09T13:45:20;4.63;;;0.80;;
15831;SDS011;8016;49.928;9.372;2022-09-09T13:47:47;5.57;;;1.30;;
15831;SDS011;8016;49.928;9.372;2022-09-09T13:50:20;2.03;;;0.90;;
15831;SDS011;8016;49.928;9.372;2022-09-09T13:52:47;3.47;;;1.47;;
15831;SDS011;8016;49.928;9.372;2022-09-09T13:55:15;2.00;;;1.20;;
15831;SDS011;8016;49.928;9.372;2022-09-09T13:57:49;1.87;;;0.80;;
15831;SDS011;8016;49.928;9.372;2022-09-09T14:00:15;1.40;;;0.70;;
15831;SDS011;8016;49.928;9.372;2022-09-09T14:02:41;3.03;;;0.97;;
15831;SDS011;8016;49.928;9.372;2022-09-09T14:05:09;3.67;;;0.93;;
15831;SDS011;8016;49.928;9.372;2022-09-09T14:07:35;3.40;;;1.00;;
15831;SDS011;8016;49.928;9.372;2022-09-09T14:10:03;3.27;;;0.97;;
15831;SDS011;8016;49.928;9.372;2022-09-09T14:12:29;5.37;;;0.90;;
15831;SDS011;8016;49.928;9.372;2022-09-09T14:14:55;4.00;;;1.00;;
15831;SDS011;8016;49.928;9.372;2022-09-09T14:17:21;3.47;;;1.00;;
15831;SDS011;8016;49.928;9.372;2022-09-09T14:19:47;2.70;;;1.10;;
15831;SDS011;8016;49.928;9.372;2022-09-09T14:22:14;3.17;;;1.40;;
15831;SDS011;8016;49.928;9.372;2022-09-09T14:24:40;3.27;;;1.07;;
15831;SDS011;8016;49.928;9.372;2022-09-09T14:27:06;3.70;;;0.93;;
15831;SDS011;8016;49.928;9.372;2022-09-09T14:29:32;3.33;;;1.20;;
15831;SDS011;8016;49.928;9.372;2022-09-09T14:31:58;3.30;;;1.23;;
15831;SDS011;8016;49.928;9.372;2022-09-09T14:34:25;2.87;;;0.70;;
15831;SDS011;8016;49.928;9.372;2022-09-09T14:36:51;4.03;;;1.03;;
15831;SDS011;8016;49.928;9.372;2022-09-09T14:39:17;2.80;;;0.70;;
15831;SDS011;8016;49.928;9.372;2022-09-09T14:41:43;2.00;;;0.80;;
15831;SDS011;8016;49.928;9.372;2022-09-09T14:44:10;3.27;;;1.10;;
15831;SDS011;8016;49.928;9.372;2022-09-09T14:46:36;4.63;;;1.50;;
15831;SDS011;8016;49.928;9.372;2022-09-09T14:49:02;4.03;;;1.40;;
15831;SDS011;8016;49.928;9.372;2022-09-09T14:51:29;2.80;;;1.17;;
15831;SDS011;8016;49.928;9.372;2022-09-09T14:53:56;1.93;;;0.80;;
15831;SDS011;8016;49.928;9.372;2022-09-09T14:56:23;4.40;;;1.00;;
15831;SDS011;8016;49.928;9.372;2022-09-09T14:58:49;2.67;;;0.93;;
15831;SDS011;8016;49.928;9.372;2022-09-09T15:01:16;2.10;;;1.20;;
15831;SDS011;8016;49.928;9.372;2022-09-09T15:03:47;3.00;;;0.97;;
15831;SDS011;8016;49.928;9.372;2022-09-09T15:06:14;2.57;;;0.90;;
15831;SDS011;8016;49.928;9.372;2022-09-09T15:08:42;2.83;;;1.00;;
15831;SDS011;8016;49.928;9.372;2022-09-09T15:11:08;2.17;;;0.70;;
15831;SDS011;8016;49.928;9.372;2022-09-09T15:13:39;2.77;;;0.80;;
15831;SDS011;8016;49.928;9.372;2022-09-09T15:16:12;1.80;;;0.80;;
15831;SDS011;8016;49.928;9.372;2022-09-09T15:18:38;3.67;;;1.10;;
15831;SDS011;8016;49.928;9.372;2022-09-09T15:21:11;2.93;;;0.83;;
15831;SDS011;8016;49.928;9.372;2022-09-09T15:23:37;3.60;;;1.10;;
15831;SDS011;8016;49.928;9.372;2022-09-09T15:26:04;2.67;;;0.87;;
15831;SDS011;8016;49.928;9.372;2022-09-09T15:28:34;1.70;;;1.00;;
15831;SDS011;8016;49.928;9.372;2022-09-09T15:31:13;2.57;;;0.90;;
15831;SDS011;8016;49.928;9.372;2022-09-09T15:33:39;2.20;;;1.00;;
15831;SDS011;8016;49.928;9.372;2022-09-09T15:36:50;4.27;;;1.10;;
15831;SDS011;8016;49.928;9.372;2022-09-09T15:38:52;2.77;;;0.90;;
15831;SDS011;8016;49.928;9.372;2022-09-09T15:41:19;2.53;;;0.87;;
15831;SDS011;8016;49.928;9.372;2022-09-09T15:43:46;3.20;;;0.97;;
15831;SDS011;8016;49.928;9.372;2022-09-09T15:48:42;3.97;;;1.13;;
15831;SDS011;8016;49.928;9.372;2022-09-09T15:51:12;2.63;;;0.90;;
15831;SDS011;8016;49.928;9.372;2022-09-09T15:53:38;4.43;;;0.77;;
15831;SDS011;8016;49.928;9.372;2022-09-09T15:56:05;3.20;;;1.20;;
15831;SDS011;8016;49.928;9.372;2022-09-09T15:58:31;1.13;;;0.70;;
15831;SDS011;8016;49.928;9.372;2022-09-09T16:01:01;2.23;;;1.20;;
15831;SDS011;8016;49.928;9.372;2022-09-09T16:03:27;4.60;;;1.00;;
15831;SDS011;8016;49.928;9.372;2022-09-09T16:05:54;2.23;;;0.80;;
15831;SDS011;8016;49.928;9.372;2022-09-09T16:08:20;1.80;;;0.73;;
15831;SDS011;8016;49.928;9.372;2022-09-09T16:10:46;1.43;;;0.80;;
15831;SDS011;8016;49.928;9.372;2022-09-09T16:13:13;2.80;;;0.83;;
15831;SDS011;8016;49.928;9.372;2022-09-09T16:15:39;3.67;;;1.10;;
15831;SDS011;8016;49.928;9.372;2022-09-09T16:18:05;3.33;;;0.80;;
15831;SDS011;8016;49.928;9.372;2022-09-09T16:20:31;16.50;;;8.10;;
15831;SDS011;8016;49.928;9.372;2022-09-09T16:22:57;1.23;;;0.60;;
15831;SDS011;8016;49.928;9.372;2022-09-09T16:25:23;3.43;;;1.03;;
15831;SDS011;8016;49.928;9.372;2022-09-09T16:27:48;2.43;;;1.20;;
15831;SDS011;8016;49.928;9.372;2022-09-09T16:30:14;2.60;;;0.80;;
15831;SDS011;8016;49.928;9.372;2022-09-09T16:32:40;3.83;;;1.10;;
15831;SDS011;8016;49.928;9.372;2022-09-09T16:35:06;2.43;;;1.00;;
15831;SDS011;8016;49.928;9.372;2022-09-09T16:37:32;1.67;;;0.90;;
15831;SDS011;8016;49.928;9.372;2022-09-09T16:39:58;4.40;;;1.10;;
15831;SDS011;8016;49.928;9.372;2022-09-09T16:42:24;2.47;;;0.80;;
15831;SDS011;8016;49.928;9.372;2022-09-09T16:44:51;1.53;;;0.67;;
15831;SDS011;8016;49.928;9.372;2022-09-09T16:47:17;2.60;;;0.77;;
15831;SDS011;8016;49.928;9.372;2022-09-09T16:49:43;3.70;;;1.00;;
15831;SDS011;8016;49.928;9.372;2022-09-09T16:52:09;3.20;;;0.90;;
15831;SDS011;8016;49.928;9.372;2022-09-09T16:54:34;1.53;;;1.00;;
15831;SDS011;8016;49.928;9.372;2022-09-09T16:57:00;9.30;;;0.93;;
15831;SDS011;8016;49.928;9.372;2022-09-09T16:59:26;4.93;;;1.10;;
15831;SDS011;8016;49.928;9.372;2022-09-09T17:01:52;2.43;;;1.10;;
15831;SDS011;8016;49.928;9.372;2022-09-09T17:04:20;3.83;;;1.23;;